createdAt,value
2018-04-16T08:14:50.180Z,5.63
2018-04-16T08:15:50.275Z,5.63
2018-04-16T08:16:50.376Z,5.63
2018-04-16T08:17:50.469Z,5.63
2018-04-16T08:18:50.566Z,0.00
2018-04-16T08:19:50.668Z,5.63
2018-04-16T08:20:50.795Z,5.63
2018-04-16T08:21:50.893Z,5.63
2018-04-16T08:22:50.999Z,5.63
2018-04-16T08:23:51.091Z,5.63
2018-04-16T08:24:51.190Z,45.00
2018-04-16T08:25:51.303Z,90.00
2018-04-16T08:26:51.427Z,78.75
2018-04-16T08:27:51.527Z,73.13
2018-04-16T08:28:51.625Z,90.00
2018-04-16T08:29:51.726Z,61.88
2018-04-16T08:30:51.827Z,67.50
2018-04-16T08:31:51.933Z,67.50
2018-04-16T08:32:52.061Z,45.00
2018-04-16T08:33:52.162Z,73.13
2018-04-16T08:34:52.665Z,78.75
2018-04-16T08:35:52.363Z,73.13
2018-04-16T08:36:52.465Z,5.63
2018-04-16T08:37:52.575Z,5.63
2018-04-16T08:38:52.678Z,5.63
2018-04-16T08:39:52.783Z,0.00
2018-04-16T08:40:52.880Z,0.00
2018-04-16T08:41:52.985Z,0.00
2018-04-16T08:42:53.088Z,5.63
2018-04-16T08:43:53.215Z,5.63
2018-04-16T08:44:53.317Z,0.00
2018-04-16T08:45:53.419Z,5.63
2018-04-16T08:46:53.521Z,0.00
2018-04-16T08:47:53.620Z,0.00
2018-04-16T08:48:53.733Z,0.00
2018-04-16T08:49:53.857Z,0.00
2018-04-16T08:50:53.957Z,0.00
2018-04-16T08:51:54.058Z,0.00
2018-04-16T08:52:54.161Z,0.00
2018-04-16T08:53:54.264Z,0.00
2018-04-16T08:54:54.367Z,0.00
2018-04-16T08:55:54.475Z,0.00
2018-04-16T08:56:54.576Z,0.00
2018-04-16T08:57:54.711Z,0.00
2018-04-16T08:58:54.779Z,0.00
2018-04-16T08:59:54.882Z,0.00
2018-04-16T09:00:55.013Z,0.00
2018-04-16T09:01:55.111Z,0.00
2018-04-16T09:02:55.213Z,0.00
2018-04-16T09:03:55.315Z,0.00
2018-04-16T09:04:55.416Z,0.00
2018-04-16T09:05:55.527Z,0.00
2018-04-16T09:06:55.655Z,0.00
2018-04-16T09:07:55.754Z,0.00
2018-04-16T09:08:55.855Z,0.00
2018-04-16T09:09:55.956Z,0.00
2018-04-16T09:10:56.058Z,0.00
2018-04-16T09:11:56.170Z,0.00
2018-04-16T09:12:56.270Z,0.00
2018-04-16T09:13:56.371Z,0.00
2018-04-16T09:14:56.474Z,0.00
2018-04-16T09:15:56.575Z,0.00
2018-04-16T09:16:56.684Z,0.00
2018-04-16T09:17:56.811Z,0.00
2018-04-16T09:18:56.913Z,0.00
2018-04-16T09:19:57.015Z,0.00
2018-04-16T09:20:57.116Z,0.00
2018-04-16T09:21:57.217Z,0.00
2018-04-16T09:22:57.345Z,0.00
2018-04-16T09:23:57.447Z,0.00
2018-04-16T09:24:57.549Z,0.00
2018-04-16T09:25:57.650Z,0.00
2018-04-16T09:26:57.752Z,0.00
2018-04-16T09:27:57.864Z,0.00
2018-04-16T09:28:57.990Z,5.63
2018-04-16T09:29:58.091Z,5.63
